Time;durP1;ratioP1;P1;durP2;ratioP2;P2;SDS_P1;SDS_P2;PMS_P1;PMS_P2;Temp;Humidity;BMP_temperature;BMP_pressure;BME280_temperature;BME280_humidity;BME280_pressure;Samples;Min_cycle;Max_cycle;Signal;HPM_P1;HPM_P2
2022/02/15 00:01:32;;;;;;;;;;;1.50;91.20;;;;;;6048120;23;19942;-76
2022/02/15 00:03:59;;;;;;;;;;;1.50;91.00;;;;;;6048298;23;19965;-76
2022/02/15 00:06:26;;;;;;;;;;;1.50;90.90;;;;;;6073301;23;20398;-77
2022/02/15 00:08:52;;;;;;;;;;;1.50;90.90;;;;;;6044286;23;20028;-78
2022/02/15 00:11:19;;;;;;;;;;;1.50;91.20;;;;;;6071960;23;20255;-78
2022/02/15 00:13:46;;;;;;;;;;;1.50;91.30;;;;;;6044477;23;19918;-77
2022/02/15 00:16:14;;;;;;;;;;;1.50;91.10;;;;;;6048292;23;19988;-78
2022/02/15 00:18:40;;;;;;;;;;;1.50;91.10;;;;;;6076276;23;19925;-76
2022/02/15 00:21:07;;;;;;;;;;;1.50;91.00;;;;;;6067966;23;20300;-77
2022/02/15 00:23:34;;;;;;;;;;;1.40;91.70;;;;;;6043776;23;19924;-77
2022/02/15 00:26:01;;;;;;;;;;;1.30;91.90;;;;;;6048086;23;20279;-77
2022/02/15 00:28:28;;;;;;;;;;;1.40;91.80;;;;;;6072403;23;19922;-78
2022/02/15 00:30:54;;;;;;;;;;;1.40;91.80;;;;;;6049005;23;19918;-75
2022/02/15 00:33:21;;;;;;;;;;;1.40;91.80;;;;;;6075120;23;19965;-77
2022/02/15 00:35:48;;;;;;;;;;;1.30;91.50;;;;;;6072386;23;19946;-76
2022/02/15 00:38:15;;;;;;;;;;;1.30;91.50;;;;;;6071096;23;19921;-76
2022/02/15 00:40:42;;;;;;;;;;;1.30;91.80;;;;;;6071541;23;20343;-78
2022/02/15 00:43:08;;;;;;;;;;;1.30;91.80;;;;;;6053643;23;19921;-75
2022/02/15 00:45:35;;;;;;;;;;;1.30;91.80;;;;;;6074397;23;19929;-75
2022/02/15 00:48:02;;;;;;;;;;;1.30;91.90;;;;;;6069569;23;19960;-78
2022/02/15 00:50:29;;;;;;;;;;;1.30;92.00;;;;;;6054417;23;19917;-78
2022/02/15 00:52:56;;;;;;;;;;;1.30;92.00;;;;;;6068868;23;19918;-75
2022/02/15 00:55:23;;;;;;;;;;;1.30;91.80;;;;;;6050929;23;19917;-76
2022/02/15 00:57:49;;;;;;;;;;;1.30;92.00;;;;;;6072536;23;19925;-78
2022/02/15 01:00:17;;;;;;;;;;;1.30;92.10;;;;;;6043539;23;19922;-77
2022/02/15 01:02:44;;;;;;;;;;;1.30;91.90;;;;;;6052368;23;20323;-78
2022/02/15 01:05:11;;;;;;;;;;;1.30;92.10;;;;;;6076161;23;19917;-77
2022/02/15 01:07:38;;;;;;;;;;;1.30;92.20;;;;;;6078371;23;19921;-75
2022/02/15 01:10:05;;;;;;;;;;;1.30;92.30;;;;;;6077692;23;19921;-78
2022/02/15 01:12:32;;;;;;;;;;;1.20;92.40;;;;;;6047556;23;19918;-76
2022/02/15 01:14:59;;;;;;;;;;;1.20;92.30;;;;;;6073311;23;20339;-75
2022/02/15 01:17:25;;;;;;;;;;;1.20;92.60;;;;;;6070476;23;19925;-78
2022/02/15 01:19:52;;;;;;;;;;;1.10;93.00;;;;;;6043408;23;19921;-77
2022/02/15 01:22:19;;;;;;;;;;;1.10;93.00;;;;;;6070493;23;20250;-76
2022/02/15 01:24:46;;;;;;;;;;;1.10;93.00;;;;;;6072497;23;19918;-78
2022/02/15 01:27:12;;;;;;;;;;;1.20;92.80;;;;;;6051238;23;19924;-76
2022/02/15 01:29:39;;;;;;;;;;;1.20;92.70;;;;;;6071180;23;20287;-75
2022/02/15 01:32:06;;;;;;;;;;;1.20;92.50;;;;;;6084460;23;19918;-77
2022/02/15 01:34:33;;;;;;;;;;;1.20;92.50;;;;;;6047191;23;20331;-77
2022/02/15 01:37:00;;;;;;;;;;;1.20;92.60;;;;;;6043409;23;19922;-77
2022/02/15 01:39:27;;;;;;;;;;;1.20;92.50;;;;;;6072753;23;19917;-75
2022/02/15 01:41:54;;;;;;;;;;;1.30;92.40;;;;;;6075649;23;19917;-76
2022/02/15 01:44:21;;;;;;;;;;;1.30;92.30;;;;;;6071722;23;19918;-75
2022/02/15 01:46:48;;;;;;;;;;;1.30;92.20;;;;;;6072515;23;20287;-77
2022/02/15 01:49:15;;;;;;;;;;;1.40;92.20;;;;;;6043827;23;19917;-77
2022/02/15 01:51:42;;;;;;;;;;;1.40;92.20;;;;;;6071014;23;20307;-78
2022/02/15 01:54:09;;;;;;;;;;;1.40;92.00;;;;;;6071382;23;19921;-77
2022/02/15 01:56:35;;;;;;;;;;;1.40;91.90;;;;;;6072252;23;19921;-77
2022/02/15 01:59:02;;;;;;;;;;;1.40;91.80;;;;;;6043304;23;19917;-77
2022/02/15 02:01:29;;;;;;;;;;;1.40;91.80;;;;;;6043055;23;19948;-77
2022/02/15 02:03:56;;;;;;;;;;;1.40;91.70;;;;;;6043374;23;19917;-77
2022/02/15 02:06:24;;;;;;;;;;;1.40;91.80;;;;;;6072327;23;19941;-76
2022/02/15 02:08:51;;;;;;;;;;;1.40;91.80;;;;;;6068229;23;19973;-76
2022/02/15 02:11:18;;;;;;;;;;;1.40;91.70;;;;;;6066722;23;20331;-77
2022/02/15 02:13:45;;;;;;;;;;;1.40;91.60;;;;;;6068305;23;19929;-77
2022/02/15 02:16:12;;;;;;;;;;;1.50;91.60;;;;;;6068982;23;19973;-77
2022/02/15 02:18:38;;;;;;;;;;;1.50;91.60;;;;;;6046434;23;19921;-76
2022/02/15 02:21:05;;;;;;;;;;;1.50;91.70;;;;;;6048167;23;19922;-77
2022/02/15 02:23:33;;;;;;;;;;;1.50;91.60;;;;;;6073321;23;19918;-77
2022/02/15 02:26:02;;;;;;;;;;;1.50;91.80;;;;;;6068867;23;19972;-77
2022/02/15 02:28:29;;;;;;;;;;;1.50;91.70;;;;;;6073726;23;19929;-76
2022/02/15 02:30:55;;;;;;;;;;;1.50;91.60;;;;;;6078776;23;19921;-77
2022/02/15 02:33:22;;;;;;;;;;;1.50;91.50;;;;;;6074741;23;20354;-77
2022/02/15 02:35:59;;;;;;;;;;;1.50;91.60;;;;;;6049950;23;19921;-77
2022/02/15 02:38:26;;;;;;;;;;;1.50;91.60;;;;;;6074400;23;19945;-77
2022/02/15 02:40:52;;;;;;;;;;;1.50;91.80;;;;;;6045063;23;20331;-78
2022/02/15 02:43:19;;;;;;;;;;;1.50;91.80;;;;;;6044915;23;19924;-77
2022/02/15 02:45:46;;;;;;;;;;;1.50;91.70;;;;;;6073542;23;19921;-77
2022/02/15 02:48:15;;;;;;;;;;;1.50;91.70;;;;;;6068146;23;19918;-77
2022/02/15 02:50:42;;;;;;;;;;;1.40;91.90;;;;;;6069668;23;19977;-78
2022/02/15 02:53:10;;;;;;;;;;;1.50;92.30;;;;;;6085532;23;19928;-76
2022/02/15 02:55:38;;;;;;;;;;;1.50;91.80;;;;;;6075992;23;19917;-76
2022/02/15 02:58:04;;;;;;;;;;;1.50;91.70;;;;;;6069741;23;19918;-76
2022/02/15 03:00:31;;;;;;;;;;;1.40;91.70;;;;;;6049154;23;20259;-77
2022/02/15 03:03:00;;;;;;;;;;;1.40;91.90;;;;;;6051440;23;19932;-76
2022/02/15 03:05:26;;;;;;;;;;;1.40;91.80;;;;;;6070739;23;19918;-77
2022/02/15 03:07:53;;;;;;;;;;;1.40;92.00;;;;;;6048838;23;19925;-77
2022/02/15 03:10:20;;;;;;;;;;;1.40;91.80;;;;;;6075454;23;19947;-76
2022/02/15 03:12:47;;;;;;;;;;;1.40;91.80;;;;;;6052673;23;19917;-76
2022/02/15 03:15:13;;;;;;;;;;;1.30;91.80;;;;;;6081294;23;19921;-77
2022/02/15 03:17:40;;;;;;;;;;;1.30;92.00;;;;;;6077528;23;19972;-77
2022/02/15 03:20:24;;;;;;;;;;;1.30;91.90;;;;;;6079575;23;20262;-76
2022/02/15 03:22:51;;;;;;;;;;;1.30;92.00;;;;;;6077398;23;19922;-77
2022/02/15 03:25:18;;;;;;;;;;;1.30;91.90;;;;;;6045115;23;20231;-77
2022/02/15 03:27:45;;;;;;;;;;;1.20;92.30;;;;;;6048338;23;19918;-77
2022/02/15 03:30:11;;;;;;;;;;;1.10;92.50;;;;;;6053643;23;19917;-77
2022/02/15 03:32:39;;;;;;;;;;;1.20;92.50;;;;;;6069287;23;19921;-77
2022/02/15 03:35:06;;;;;;;;;;;1.20;92.50;;;;;;6078130;23;20005;-77
2022/02/15 03:37:33;;;;;;;;;;;1.20;92.30;;;;;;6078352;23;19925;-77
2022/02/15 03:40:00;;;;;;;;;;;1.20;92.30;;;;;;6052878;23;19917;-77
2022/02/15 03:45:13;;;;;;;;;;;1.30;92.50;;;;;;6087510;23;19918;-77
2022/02/15 03:47:40;;;;;;;;;;;1.30;92.40;;;;;;6053353;23;19917;-77
2022/02/15 03:50:07;;;;;;;;;;;1.20;92.40;;;;;;6073180;23;19921;-76
2022/02/15 03:52:34;;;;;;;;;;;1.30;92.50;;;;;;6069559;23;20259;-78
2022/02/15 03:55:01;;;;;;;;;;;1.20;92.50;;;;;;6049267;23;19973;-77
2022/02/15 03:57:29;;;;;;;;;;;1.20;92.40;;;;;;6043933;23;20409;-78
2022/02/15 03:59:56;;;;;;;;;;;1.20;92.80;;;;;;6072039;23;19925;-77
2022/02/15 04:02:23;;;;;;;;;;;1.10;93.00;;;;;;6075526;23;19901;-77
2022/02/15 04:04:49;;;;;;;;;;;1.10;92.90;;;;;;6074649;23;20266;-77
2022/02/15 04:07:16;;;;;;;;;;;1.10;92.80;;;;;;6074513;23;19972;-77
2022/02/15 04:09:43;;;;;;;;;;;1.10;93.00;;;;;;6043573;23;20228;-77
2022/02/15 04:12:10;;;;;;;;;;;1.10;92.90;;;;;;6072446;23;19925;-76
2022/02/15 04:14:36;;;;;;;;;;;1.10;92.80;;;;;;6080051;23;19917;-77
2022/02/15 04:17:04;;;;;;;;;;;1.10;92.90;;;;;;6068897;23;19924;-76
2022/02/15 04:19:31;;;;;;;;;;;1.20;92.70;;;;;;6075387;23;19921;-77
2022/02/15 04:21:58;;;;;;;;;;;1.20;92.80;;;;;;6082241;23;19917;-76
2022/02/15 04:24:24;;;;;;;;;;;1.20;92.60;;;;;;6078634;23;20340;-76
2022/02/15 04:26:51;;;;;;;;;;;1.20;92.50;;;;;;6048044;23;19921;-77
2022/02/15 04:29:18;;;;;;;;;;;1.20;92.40;;;;;;6067319;23;19917;-77
2022/02/15 04:31:45;;;;;;;;;;;1.20;92.60;;;;;;6052316;23;19917;-76
2022/02/15 04:34:11;;;;;;;;;;;1.20;92.60;;;;;;6075115;23;19924;-77
2022/02/15 04:36:38;;;;;;;;;;;1.20;92.50;;;;;;6073896;23;19981;-77
2022/02/15 04:39:05;;;;;;;;;;;1.20;92.50;;;;;;6085759;23;19918;-76
2022/02/15 04:41:32;;;;;;;;;;;1.20;92.50;;;;;;6076223;23;19921;-77
2022/02/15 04:43:58;;;;;;;;;;;1.20;92.50;;;;;;6053547;23;20336;-77
2022/02/15 04:46:25;;;;;;;;;;;1.20;92.50;;;;;;6049374;23;19934;-77
2022/02/15 04:48:52;;;;;;;;;;;1.20;92.30;;;;;;6068662;23;19921;-78
2022/02/15 04:51:19;;;;;;;;;;;1.20;92.30;;;;;;6048717;23;19925;-76
2022/02/15 04:53:46;;;;;;;;;;;1.20;92.40;;;;;;6049607;23;19921;-77
2022/02/15 04:56:12;;;;;;;;;;;1.20;92.50;;;;;;6055173;23;19918;-77
2022/02/15 04:58:39;;;;;;;;;;;1.20;92.40;;;;;;6055254;23;19917;-77
2022/02/15 05:01:06;;;;;;;;;;;1.20;92.30;;;;;;6074506;23;19928;-76
2022/02/15 05:03:34;;;;;;;;;;;1.20;92.30;;;;;;6073652;23;19954;-77
2022/02/15 05:06:00;;;;;;;;;;;1.20;92.30;;;;;;6049225;23;19926;-77
2022/02/15 05:08:27;;;;;;;;;;;1.10;92.40;;;;;;6068636;23;19929;-77
2022/02/15 05:10:54;;;;;;;;;;;1.10;92.60;;;;;;6054465;23;19925;-76
2022/02/15 05:13:21;;;;;;;;;;;1.10;92.70;;;;;;6049416;23;19964;-78
2022/02/15 05:15:48;;;;;;;;;;;1.00;92.80;;;;;;6067428;23;19918;-76
2022/02/15 05:18:15;;;;;;;;;;;1.00;93.10;;;;;;6085586;23;19901;-77
2022/02/15 05:20:41;;;;;;;;;;;0.90;93.20;;;;;;6054582;23;19917;-77
2022/02/15 05:23:09;;;;;;;;;;;0.90;93.30;;;;;;6074965;23;20320;-76
2022/02/15 05:25:36;;;;;;;;;;;0.90;93.50;;;;;;6078452;23;19924;-77
2022/02/15 05:28:03;;;;;;;;;;;0.90;94.00;;;;;;6053221;23;19918;-77
2022/02/15 05:30:30;;;;;;;;;;;0.80;93.60;;;;;;6072546;23;19947;-77
2022/02/15 05:32:57;;;;;;;;;;;0.80;93.70;;;;;;6077995;23;20244;-76
2022/02/15 05:35:24;;;;;;;;;;;0.80;93.70;;;;;;6079724;23;19918;-77
2022/02/15 05:37:50;;;;;;;;;;;0.80;93.50;;;;;;6081674;23;19918;-77
2022/02/15 05:40:17;;;;;;;;;;;0.80;93.60;;;;;;6059966;23;19908;-78
2022/02/15 05:42:45;;;;;;;;;;;0.80;93.60;;;;;;6073840;23;19917;-78
2022/02/15 05:45:12;;;;;;;;;;;0.80;93.60;;;;;;6058042;23;20251;-77
2022/02/15 05:47:39;;;;;;;;;;;0.80;93.50;;;;;;6054565;23;19902;-76
2022/02/15 05:52:52;;;;;;;;;;;0.80;93.40;;;;;;6075915;23;19921;-76
2022/02/15 05:55:19;;;;;;;;;;;0.80;93.40;;;;;;6074669;23;19902;-76
2022/02/15 05:57:45;;;;;;;;;;;0.70;93.60;;;;;;6079922;23;19921;-76
2022/02/15 06:00:14;;;;;;;;;;;0.70;93.80;;;;;;6075666;23;19948;-77
2022/02/15 06:02:45;;;;;;;;;;;0.70;93.80;;;;;;6075941;23;19921;-77
2022/02/15 06:05:11;;;;;;;;;;;0.70;93.80;;;;;;6049821;23;19917;-76
2022/02/15 06:07:38;;;;;;;;;;;0.70;93.80;;;;;;6070146;23;19951;-76
2022/02/15 06:10:05;;;;;;;;;;;0.70;93.80;;;;;;6050576;23;20402;-77
2022/02/15 06:12:32;;;;;;;;;;;0.70;93.80;;;;;;6049495;23;20343;-77
2022/02/15 06:14:59;;;;;;;;;;;0.80;93.70;;;;;;6056073;23;19921;-76
2022/02/15 06:17:26;;;;;;;;;;;0.80;93.70;;;;;;6075039;23;19969;-76
2022/02/15 06:19:53;;;;;;;;;;;0.80;93.70;;;;;;6073690;23;19917;-75
2022/02/15 06:22:19;;;;;;;;;;;0.70;93.80;;;;;;6079694;23;20331;-76
2022/02/15 06:24:46;;;;;;;;;;;0.80;93.80;;;;;;6044595;23;19921;-76
2022/02/15 06:27:13;;;;;;;;;;;0.70;93.70;;;;;;6086354;23;19901;-77
2022/02/15 06:29:39;;;;;;;;;;;0.70;93.70;;;;;;6084372;23;19901;-77
2022/02/15 06:32:07;;;;;;;;;;;0.60;93.90;;;;;;6077637;23;19905;-77
2022/02/15 06:34:34;;;;;;;;;;;0.60;94.10;;;;;;6074510;23;19968;-76
2022/02/15 06:37:01;;;;;;;;;;;0.60;94.20;;;;;;6074801;23;19925;-77
2022/02/15 06:39:28;;;;;;;;;;;0.60;94.10;;;;;;6067226;23;19918;-77
2022/02/15 06:41:55;;;;;;;;;;;0.50;94.10;;;;;;6082974;23;19925;-77
2022/02/15 06:44:22;;;;;;;;;;;0.50;94.10;;;;;;6078987;23;19917;-77
2022/02/15 06:46:49;;;;;;;;;;;0.50;94.20;;;;;;6075561;23;19918;-76
2022/02/15 06:49:18;;;;;;;;;;;0.50;94.20;;;;;;6086988;23;19906;-78
2022/02/15 06:51:45;;;;;;;;;;;0.50;94.30;;;;;;6055103;23;19953;-77
2022/02/15 06:54:14;;;;;;;;;;;0.50;94.70;;;;;;6075170;23;19997;-77
2022/02/15 06:56:41;;;;;;;;;;;0.50;94.20;;;;;;6069422;23;19925;-76
2022/02/15 06:59:09;;;;;;;;;;;0.30;94.20;;;;;;6069693;23;19966;-77
2022/02/15 07:01:39;;;;;;;;;;;0.30;94.30;;;;;;6044540;23;19921;-77
2022/02/15 07:04:07;;;;;;;;;;;0.30;94.40;;;;;;6075743;23;19945;-77
2022/02/15 07:06:33;;;;;;;;;;;0.30;94.40;;;;;;6047746;23;20394;-77
2022/02/15 07:09:00;;;;;;;;;;;0.30;94.40;;;;;;6058537;23;19917;-77
2022/02/15 07:11:27;;;;;;;;;;;0.30;94.40;;;;;;6050828;23;19909;-76
2022/02/15 07:13:54;;;;;;;;;;;0.40;94.40;;;;;;6049965;23;19902;-77
2022/02/15 07:16:22;;;;;;;;;;;0.40;94.40;;;;;;6069355;23;19925;-77
2022/02/15 07:18:48;;;;;;;;;;;0.40;94.40;;;;;;6073765;23;19921;-77
2022/02/15 07:21:15;;;;;;;;;;;0.40;94.30;;;;;;6044668;23;20426;-75
2022/02/15 07:23:42;;;;;;;;;;;0.40;94.40;;;;;;6069055;23;20232;-76
2022/02/15 07:26:09;;;;;;;;;;;0.40;94.30;;;;;;6080859;23;19918;-77
2022/02/15 07:28:39;;;;;;;;;;;0.40;94.30;;;;;;6044751;23;19944;-76
2022/02/15 07:31:06;;;;;;;;;;;0.30;94.30;;;;;;6074909;23;19917;-77
2022/02/15 07:33:33;;;;;;;;;;;0.40;94.30;;;;;;6068033;23;19917;-77
2022/02/15 07:36:00;;;;;;;;;;;0.30;94.10;;;;;;6071585;23;20251;-79
2022/02/15 07:38:28;;;;;;;;;;;0.20;94.30;;;;;;6059893;23;20228;-76
2022/02/15 07:40:55;;;;;;;;;;;0.20;94.50;;;;;;6050030;23;19917;-77
2022/02/15 07:43:21;;;;;;;;;;;0.20;94.50;;;;;;6055836;23;20275;-75
2022/02/15 07:45:48;;;;;;;;;;;0.30;94.60;;;;;;6050137;23;20327;-78
2022/02/15 07:48:15;;;;;;;;;;;0.30;94.50;;;;;;6050185;23;19917;-77
2022/02/15 07:50:42;;;;;;;;;;;0.30;94.40;;;;;;6069511;23;19952;-77
2022/02/15 07:53:08;;;;;;;;;;;0.30;94.40;;;;;;6051606;23;20255;-77
2022/02/15 07:55:36;;;;;;;;;;;0.40;94.40;;;;;;6056437;23;19918;-77
2022/02/15 07:58:03;;;;;;;;;;;0.40;94.30;;;;;;6050103;23;19973;-77
2022/02/15 08:00:30;;;;;;;;;;;0.40;94.30;;;;;;6044890;23;20236;-75
2022/02/15 08:02:57;;;;;;;;;;;0.40;94.20;;;;;;6090962;23;19925;-77
2022/02/15 08:05:25;;;;;;;;;;;0.40;94.10;;;;;;6078509;23;19901;-77
2022/02/15 08:07:55;;;;;;;;;;;0.30;94.10;;;;;;6074632;23;20426;-77
2022/02/15 08:10:23;;;;;;;;;;;0.30;94.20;;;;;;6043880;23;19921;-77
2022/02/15 08:12:55;;;;;;;;;;;0.30;94.20;;;;;;6047873;23;19925;-78
2022/02/15 08:15:23;;;;;;;;;;;0.40;94.20;;;;;;6069306;23;19921;-78
2022/02/15 08:17:50;;;;;;;;;;;0.40;94.20;;;;;;6049366;23;20296;-76
2022/02/15 08:20:17;;;;;;;;;;;0.40;94.20;;;;;;6069091;23;19917;-77
2022/02/15 08:22:43;;;;;;;;;;;0.40;94.20;;;;;;6043945;23;19917;-77
2022/02/15 08:25:10;;;;;;;;;;;0.50;94.10;;;;;;6085657;23;20198;-76
2022/02/15 08:27:37;;;;;;;;;;;0.40;94.00;;;;;;6074371;23;19917;-76
2022/02/15 08:30:04;;;;;;;;;;;0.30;94.10;;;;;;6074103;23;19917;-77
2022/02/15 08:32:31;;;;;;;;;;;0.20;94.20;;;;;;6049825;23;20248;-77
2022/02/15 08:34:58;;;;;;;;;;;0.20;94.30;;;;;;6049227;23;19969;-76
2022/02/15 08:37:25;;;;;;;;;;;0.20;94.30;;;;;;6073780;23;19925;-77
2022/02/15 08:39:52;;;;;;;;;;;0.20;94.40;;;;;;6072156;23;19922;-78
2022/02/15 08:42:19;;;;;;;;;;;0.20;94.40;;;;;;6045480;23;19917;-77
2022/02/15 08:44:48;;;;;;;;;;;0.30;94.50;;;;;;6049459;23;19921;-76
2022/02/15 08:47:16;;;;;;;;;;;0.30;94.40;;;;;;6054852;23;19968;-75
2022/02/15 08:49:43;;;;;;;;;;;0.40;94.50;;;;;;6045584;23;19925;-77
2022/02/15 08:52:10;;;;;;;;;;;0.40;94.40;;;;;;6083181;23;19942;-77
2022/02/15 08:54:38;;;;;;;;;;;0.40;94.40;;;;;;6054529;23;19918;-78
2022/02/15 08:57:05;;;;;;;;;;;0.40;94.40;;;;;;6049251;23;19949;-75
2022/02/15 08:59:32;;;;;;;;;;;0.40;94.30;;;;;;6072490;23;19973;-75
2022/02/15 09:01:59;;;;;;;;;;;0.40;94.50;;;;;;6074266;23;19917;-75
2022/02/15 09:04:25;;;;;;;;;;;0.40;94.50;;;;;;6077740;23;19942;-77
2022/02/15 09:06:54;;;;;;;;;;;0.40;94.50;;;;;;6074538;23;19926;-76
2022/02/15 09:09:21;;;;;;;;;;;0.50;94.50;;;;;;6078968;23;19906;-77
2022/02/15 09:11:48;;;;;;;;;;;0.50;94.40;;;;;;6068613;23;19924;-77
2022/02/15 09:14:15;;;;;;;;;;;0.50;94.40;;;;;;6045368;23;19924;-76
2022/02/15 09:16:42;;;;;;;;;;;0.60;94.60;;;;;;6071369;23;20019;-77
2022/02/15 09:19:08;;;;;;;;;;;0.60;94.60;;;;;;6049077;23;19913;-77
2022/02/15 09:21:35;;;;;;;;;;;0.70;94.50;;;;;;6043182;23;19918;-77
2022/02/15 09:24:02;;;;;;;;;;;0.60;94.50;;;;;;6072807;23;20310;-77
2022/02/15 09:26:29;;;;;;;;;;;0.60;94.50;;;;;;6069759;23;19901;-77
2022/02/15 09:28:56;;;;;;;;;;;0.60;94.40;;;;;;6075534;23;19922;-75
2022/02/15 09:31:24;;;;;;;;;;;0.60;94.40;;;;;;6067237;23;19921;-75
2022/02/15 09:33:54;;;;;;;;;;;0.60;94.50;;;;;;6053053;23;19934;-77
2022/02/15 09:36:23;;;;;;;;;;;0.70;94.50;;;;;;6067491;23;20232;-77
2022/02/15 09:38:50;;;;;;;;;;;0.80;94.50;;;;;;6069728;23;19925;-77
2022/02/15 09:41:18;;;;;;;;;;;0.80;94.60;;;;;;6071212;23;19918;-76
2022/02/15 09:43:45;;;;;;;;;;;0.90;94.60;;;;;;6073128;23;19973;-76
2022/02/15 09:46:13;;;;;;;;;;;1.00;94.50;;;;;;6077630;23;19929;-76
2022/02/15 09:48:41;;;;;;;;;;;1.00;94.40;;;;;;6071095;23;20299;-76
2022/02/15 09:51:08;;;;;;;;;;;1.00;94.30;;;;;;6072903;23;19918;-76
2022/02/15 09:53:36;;;;;;;;;;;1.10;94.30;;;;;;6043014;23;20292;-77
2022/02/15 09:56:04;;;;;;;;;;;1.20;94.30;;;;;;6074029;23;20339;-75
2022/02/15 09:58:30;;;;;;;;;;;1.30;94.20;;;;;;6071455;23;19944;-75
2022/02/15 10:00:57;;;;;;;;;;;1.40;94.10;;;;;;6060011;23;19950;-77
2022/02/15 10:03:24;;;;;;;;;;;1.40;94.10;;;;;;6051321;23;19917;-76
2022/02/15 10:05:51;;;;;;;;;;;1.60;94.10;;;;;;6046490;23;19921;-77
2022/02/15 10:08:28;;;;;;;;;;;1.70;93.90;;;;;;6051021;23;19918;-75
2022/02/15 10:11:06;;;;;;;;;;;1.70;93.80;;;;;;6067701;23;20303;-75
2022/02/15 10:13:40;;;;;;;;;;;1.80;93.60;;;;;;6054209;23;19969;-76
2022/02/15 10:16:06;;;;;;;;;;;1.80;93.40;;;;;;6068995;23;20296;-77
2022/02/15 10:18:37;;;;;;;;;;;1.80;93.50;;;;;;6047044;23;19977;-77
2022/02/15 10:21:04;;;;;;;;;;;1.80;93.60;;;;;;6043009;23;19917;-76
2022/02/15 10:23:33;;;;;;;;;;;1.90;93.70;;;;;;6072326;23;19921;-77
2022/02/15 10:26:01;;;;;;;;;;;2.00;93.60;;;;;;6066980;23;20393;-76
2022/02/15 10:28:29;;;;;;;;;;;2.10;93.50;;;;;;6071238;23;19995;-76
2022/02/15 10:30:57;;;;;;;;;;;2.10;93.20;;;;;;6071839;23;19922;-76
2022/02/15 10:33:27;;;;;;;;;;;2.20;93.30;;;;;;6068268;23;20321;-76
2022/02/15 10:35:57;;;;;;;;;;;2.20;93.30;;;;;;6048978;23;19973;-76
2022/02/15 10:38:44;;;;;;;;;;;2.20;93.40;;;;;;6068241;23;19917;-76
2022/02/15 10:41:18;;;;;;;;;;;2.10;93.20;;;;;;6075123;23;19925;-76
2022/02/15 10:43:49;;;;;;;;;;;2.20;93.40;;;;;;6054204;23;19901;-77
2022/02/15 10:46:39;;;;;;;;;;;2.30;93.40;;;;;;6069498;23;19921;-76
2022/02/15 10:49:07;;;;;;;;;;;2.30;93.30;;;;;;6049764;23;19921;-76
2022/02/15 10:51:34;;;;;;;;;;;2.50;93.20;;;;;;6057339;23;19921;-76
2022/02/15 10:54:01;;;;;;;;;;;2.60;93.20;;;;;;6047657;23;19953;-76
2022/02/15 10:56:34;;;;;;;;;;;2.70;92.90;;;;;;6082072;23;19977;-77
2022/02/15 10:59:02;;;;;;;;;;;2.80;92.80;;;;;;6083137;23;19929;-77
2022/02/15 11:01:32;;;;;;;;;;;2.90;93.00;;;;;;6050276;23;19918;-77
2022/02/15 11:03:59;;;;;;;;;;;3.00;93.00;;;;;;6069581;23;19918;-76
2022/02/15 11:06:28;;;;;;;;;;;3.20;92.70;;;;;;6080813;23;19945;-77
2022/02/15 11:08:56;;;;;;;;;;;3.10;91.90;;;;;;6083087;23;19957;-76
2022/02/15 11:11:24;;;;;;;;;;;3.10;92.00;;;;;;6081072;23;20366;-76
2022/02/15 11:13:53;;;;;;;;;;;3.30;92.30;;;;;;6079665;23;19977;-76
2022/02/15 11:16:22;;;;;;;;;;;3.20;91.90;;;;;;6044492;23;19925;-76
2022/02/15 11:18:48;;;;;;;;;;;3.40;92.30;;;;;;6049119;23;19965;-76
2022/02/15 11:21:23;;;;;;;;;;;3.60;92.20;;;;;;6072568;23;19924;-76
2022/02/15 11:24:00;;;;;;;;;;;3.70;92.10;;;;;;6050195;23;19980;-78
2022/02/15 11:26:31;;;;;;;;;;;3.80;91.80;;;;;;6073689;23;19919;-77
2022/02/15 11:28:59;;;;;;;;;;;4.00;92.00;;;;;;6044452;23;19951;-76
2022/02/15 11:31:30;;;;;;;;;;;4.30;92.50;;;;;;6068020;23;20262;-76
2022/02/15 11:34:03;;;;;;;;;;;4.50;91.60;;;;;;6072319;23;19917;-77
2022/02/15 11:36:30;;;;;;;;;;;4.80;91.70;;;;;;6076399;23;20012;-77
2022/02/15 11:39:00;;;;;;;;;;;5.00;90.70;;;;;;6048932;23;19918;-77
2022/02/15 11:41:29;;;;;;;;;;;5.30;90.80;;;;;;6082210;23;19923;-78
2022/02/15 11:44:00;;;;;;;;;;;5.60;90.60;;;;;;6076503;23;19980;-77
2022/02/15 11:46:31;;;;;;;;;;;5.80;89.70;;;;;;6072039;23;19918;-76
2022/02/15 11:49:27;;;;;;;;;;;5.90;89.70;;;;;;6046314;23;20307;-75
2022/02/15 11:51:54;;;;;;;;;;;6.20;88.80;;;;;;5975873;23;19918;-75
2022/02/15 11:54:21;;;;;;;;;;;6.40;87.00;;;;;;6044364;23;19976;-76
2022/02/15 11:56:49;;;;;;;;;;;6.50;86.00;;;;;;6049154;23;20296;-76
2022/02/15 11:59:29;;;;;;;;;;;6.60;86.50;;;;;;6047083;23;20347;-77
2022/02/15 12:02:01;;;;;;;;;;;6.80;86.30;;;;;;6046207;23;20327;-75
2022/02/15 12:04:28;;;;;;;;;;;7.00;85.70;;;;;;6075888;23;19925;-77
2022/02/15 12:06:58;;;;;;;;;;;7.00;85.90;;;;;;6076172;23;19918;-76
2022/02/15 12:09:25;;;;;;;;;;;7.20;84.60;;;;;;6074090;23;19918;-76
2022/02/15 12:11:59;;;;;;;;;;;7.60;84.80;;;;;;6049729;23;19925;-77
2022/02/15 12:14:26;;;;;;;;;;;7.80;82.90;;;;;;6048029;23;19921;-78
2022/02/15 12:16:53;;;;;;;;;;;8.00;81.40;;;;;;6051079;23;19917;-75
2022/02/15 12:19:21;;;;;;;;;;;8.30;81.20;;;;;;6047432;23;19950;-75
2022/02/15 12:21:48;;;;;;;;;;;8.30;78.60;;;;;;6050427;23;20335;-77
2022/02/15 12:24:16;;;;;;;;;;;8.50;77.80;;;;;;6045212;23;20411;-76
2022/02/15 12:26:43;;;;;;;;;;;8.70;74.50;;;;;;6068928;23;19985;-76
2022/02/15 12:29:10;;;;;;;;;;;9.00;75.00;;;;;;6044872;23;19918;-75
2022/02/15 12:31:37;;;;;;;;;;;9.20;72.20;;;;;;6074934;23;19977;-76
2022/02/15 12:34:04;;;;;;;;;;;9.40;71.00;;;;;;6047060;23;19925;-78
2022/02/15 12:36:32;;;;;;;;;;;9.60;68.60;;;;;;6045155;23;19921;-76
2022/02/15 12:38:59;;;;;;;;;;;9.60;67.60;;;;;;6052163;23;19917;-77
2022/02/15 12:41:27;;;;;;;;;;;9.60;68.30;;;;;;6077417;23;19917;-77
2022/02/15 12:43:58;;;;;;;;;;;9.70;69.40;;;;;;6045315;23;19929;-77
2022/02/15 12:46:26;;;;;;;;;;;9.70;67.50;;;;;;6071757;23;19917;-78
2022/02/15 12:48:55;;;;;;;;;;;9.90;69.10;;;;;;6043329;23;19925;-77
2022/02/15 12:51:22;;;;;;;;;;;10.00;68.20;;;;;;6069862;23;19917;-76
2022/02/15 12:53:51;;;;;;;;;;;10.00;67.70;;;;;;6070362;23;19969;-78
2022/02/15 12:56:19;;;;;;;;;;;10.10;66.70;;;;;;6045320;23;19949;-76
2022/02/15 12:58:48;;;;;;;;;;;10.00;66.50;;;;;;6043568;23;20206;-76
2022/02/15 13:01:16;;;;;;;;;;;10.10;67.90;;;;;;6066508;23;19917;-76
2022/02/15 13:03:43;;;;;;;;;;;10.20;66.60;;;;;;6068314;23;19917;-76
2022/02/15 13:06:10;;;;;;;;;;;10.40;68.40;;;;;;6044726;23;19917;-77
2022/02/15 13:08:44;;;;;;;;;;;10.60;66.90;;;;;;6077780;23;20391;-76
2022/02/15 13:11:11;;;;;;;;;;;10.90;66.80;;;;;;6070680;23;19922;-76
2022/02/15 13:13:39;;;;;;;;;;;11.00;66.00;;;;;;6043374;23;19942;-77
2022/02/15 13:16:06;;;;;;;;;;;11.10;64.90;;;;;;6046117;23;19981;-76
2022/02/15 13:18:40;;;;;;;;;;;11.20;64.50;;;;;;6067288;23;20251;-77
2022/02/15 13:21:11;;;;;;;;;;;11.30;64.60;;;;;;6076026;23;19917;-76
2022/02/15 13:23:38;;;;;;;;;;;11.30;64.20;;;;;;6070177;23;19937;-76
2022/02/15 13:26:09;;;;;;;;;;;11.30;64.40;;;;;;6072378;23;19918;-77
2022/02/15 13:28:43;;;;;;;;;;;11.30;64.20;;;;;;6070575;23;20307;-77
2022/02/15 13:31:10;;;;;;;;;;;11.40;64.40;;;;;;6046557;23;20473;-77
2022/02/15 13:33:42;;;;;;;;;;;11.60;64.10;;;;;;6046355;23;20247;-78
2022/02/15 13:36:10;;;;;;;;;;;11.70;62.30;;;;;;6073758;23;19927;-79
2022/02/15 13:38:38;;;;;;;;;;;11.70;63.30;;;;;;6043239;23;20295;-78
2022/02/15 13:41:05;;;;;;;;;;;11.90;62.50;;;;;;6043126;23;19917;-77
2022/02/15 13:43:35;;;;;;;;;;;11.90;61.40;;;;;;6043253;23;19917;-77
2022/02/15 13:46:02;;;;;;;;;;;11.90;60.60;;;;;;6069742;23;19933;-77
2022/02/15 13:48:29;;;;;;;;;;;11.90;61.40;;;;;;6043266;23;19922;-77
2022/02/15 13:50:59;;;;;;;;;;;12.00;60.60;;;;;;6043152;23;20339;-77
2022/02/15 13:53:26;;;;;;;;;;;12.10;61.60;;;;;;6067257;23;19952;-77
2022/02/15 13:55:53;;;;;;;;;;;12.30;60.90;;;;;;6068090;23;19929;-77
2022/02/15 13:58:20;;;;;;;;;;;12.40;60.40;;;;;;6067885;23;19973;-77
2022/02/15 14:00:49;;;;;;;;;;;12.30;59.10;;;;;;6068266;23;19918;-77
2022/02/15 14:03:16;;;;;;;;;;;12.40;59.00;;;;;;6047605;23;19925;-77
2022/02/15 14:05:43;;;;;;;;;;;12.50;58.80;;;;;;6072601;23;19941;-77
2022/02/15 14:08:10;;;;;;;;;;;12.50;58.40;;;;;;6068525;23;19918;-76
2022/02/15 14:10:37;;;;;;;;;;;12.60;58.50;;;;;;6044137;23;19978;-77
2022/02/15 14:13:04;;;;;;;;;;;12.70;58.40;;;;;;6046575;23;19921;-76
2022/02/15 14:15:31;;;;;;;;;;;12.40;59.60;;;;;;6044869;23;19922;-77
2022/02/15 14:18:00;;;;;;;;;;;12.50;58.30;;;;;;6072155;23;19921;-76
2022/02/15 14:20:31;;;;;;;;;;;12.40;58.50;;;;;;6046787;23;19944;-78
2022/02/15 14:23:00;;;;;;;;;;;12.50;56.90;;;;;;6045836;23;20343;-77
2022/02/15 14:25:32;;;;;;;;;;;12.70;57.30;;;;;;6050037;23;19925;-76
2022/02/15 14:28:03;;;;;;;;;;;12.70;56.40;;;;;;6041210;23;19918;-77
2022/02/15 14:30:30;;;;;;;;;;;12.80;57.10;;;;;;6065930;23;19918;-78
2022/02/15 14:32:58;;;;;;;;;;;12.90;56.40;;;;;;6041781;23;19981;-79
2022/02/15 14:35:26;;;;;;;;;;;13.00;56.40;;;;;;6041576;23;19918;-76
2022/02/15 14:37:53;;;;;;;;;;;13.00;55.30;;;;;;6042554;23;20402;-77